createdAt,value
2022-09-07T00:00:42.372Z,95.83
2022-09-07T00:03:09.863Z,95.90
2022-09-07T00:05:43.965Z,95.97
2022-09-07T00:08:12.135Z,96.00
2022-09-07T00:10:39.191Z,95.75
2022-09-07T00:13:07.892Z,95.64
2022-09-07T00:15:39.423Z,95.72
2022-09-07T00:18:05.955Z,96.00
2022-09-07T00:20:32.418Z,96.16
2022-09-07T00:22:58.868Z,96.16
2022-09-07T00:25:25.322Z,96.37
2022-09-07T00:27:51.788Z,96.54
2022-09-07T00:30:18.457Z,96.60
2022-09-07T00:32:45.027Z,96.61
2022-09-07T00:35:12.636Z,96.72
2022-09-07T00:37:39.122Z,96.71
2022-09-07T00:40:06.241Z,96.68
2022-09-07T00:42:32.816Z,96.65
2022-09-07T00:45:06.849Z,96.53
2022-09-07T00:47:42.561Z,96.47
2022-09-07T00:50:32.993Z,96.35
2022-09-07T00:53:07.053Z,96.29
2022-09-07T00:55:35.967Z,96.36
2022-09-07T00:58:03.415Z,96.33
2022-09-07T01:00:31.139Z,96.48
2022-09-07T01:02:59.773Z,96.42
2022-09-07T01:05:46.333Z,96.30
2022-09-07T01:08:14.071Z,96.28
2022-09-07T01:10:40.765Z,96.23
2022-09-07T01:13:07.695Z,96.26
2022-09-07T01:15:51.756Z,96.24
2022-09-07T01:18:31.935Z,96.20
2022-09-07T01:21:14.181Z,96.26
2022-09-07T01:24:07.836Z,96.05
2022-09-07T01:26:49.436Z,96.03
2022-09-07T01:29:28.347Z,95.98
2022-09-07T01:32:02.670Z,95.93
2022-09-07T01:34:29.094Z,95.87
2022-09-07T01:37:27.520Z,96.07
2022-09-07T01:39:58.734Z,95.75
2022-09-07T01:42:32.470Z,95.71
2022-09-07T01:45:02.184Z,95.77
2022-09-07T01:47:41.312Z,95.79
2022-09-07T01:50:27.012Z,95.57
2022-09-07T01:52:57.096Z,95.46
2022-09-07T01:55:46.771Z,95.43
2022-09-07T01:58:31.484Z,94.67
2022-09-07T02:01:08.243Z,94.84
2022-09-07T02:03:46.713Z,94.26
2022-09-07T02:06:42.266Z,94.11
2022-09-07T02:09:30.392Z,93.96
2022-09-07T02:11:57.517Z,93.91
2022-09-07T02:14:41.106Z,94.08
2022-09-07T02:17:20.348Z,93.99
2022-09-07T02:19:54.177Z,94.13
2022-09-07T02:22:27.199Z,93.90
2022-09-07T02:24:59.813Z,94.03
2022-09-07T02:27:52.698Z,93.86
2022-09-07T02:30:19.621Z,93.52
2022-09-07T02:32:46.218Z,93.37
2022-09-07T02:35:13.255Z,93.46
2022-09-07T02:37:41.314Z,93.74
2022-09-07T02:40:08.839Z,93.96
2022-09-07T02:42:37.175Z,94.06
2022-09-07T02:45:07.536Z,94.11
2022-09-07T02:47:46.050Z,93.97
2022-09-07T02:50:46.717Z,94.22
2022-09-07T02:53:13.108Z,94.13
2022-09-07T02:55:55.591Z,93.82
2022-09-07T02:58:49.412Z,94.11
2022-09-07T03:01:35.566Z,94.29
2022-09-07T03:04:13.639Z,94.28
2022-09-07T03:06:55.145Z,94.30
2022-09-07T03:09:28.343Z,94.32
2022-09-07T03:11:55.259Z,94.47
2022-09-07T03:14:24.773Z,94.37
2022-09-07T03:16:53.733Z,94.44
2022-09-07T03:19:20.228Z,94.38
2022-09-07T03:21:47.353Z,94.55
2022-09-07T03:24:13.884Z,94.58
2022-09-07T03:26:44.461Z,94.53
2022-09-07T03:29:10.982Z,94.57
2022-09-07T03:31:37.882Z,94.52
2022-09-07T03:34:04.459Z,94.59
2022-09-07T03:36:31.831Z,94.61
2022-09-07T03:38:59.451Z,94.58
2022-09-07T03:41:27.655Z,94.60
2022-09-07T03:43:54.887Z,94.65
2022-09-07T03:46:21.543Z,94.66
2022-09-07T03:48:49.816Z,94.65
2022-09-07T03:51:18.175Z,94.59
2022-09-07T03:53:46.300Z,94.72
2022-09-07T03:56:18.751Z,94.78
2022-09-07T03:58:46.585Z,94.59
2022-09-07T04:01:15.924Z,94.90
2022-09-07T04:03:44.239Z,94.79
2022-09-07T04:06:11.235Z,94.86
2022-09-07T04:08:39.001Z,94.67
2022-09-07T04:11:06.974Z,94.61
2022-09-07T04:13:35.652Z,94.62
2022-09-07T04:16:11.043Z,94.42
2022-09-07T04:18:37.968Z,94.65
2022-09-07T04:21:04.447Z,94.68
2022-09-07T04:23:30.989Z,94.53
2022-09-07T04:25:57.826Z,94.50
2022-09-07T04:28:24.246Z,94.68
2022-09-07T04:30:50.743Z,94.86
2022-09-07T04:33:17.286Z,94.71
2022-09-07T04:35:43.804Z,94.56
2022-09-07T04:38:14.566Z,94.47
2022-09-07T04:40:41.301Z,94.36
2022-09-07T04:43:09.553Z,94.20
2022-09-07T04:45:37.231Z,94.18
2022-09-07T04:48:04.318Z,94.43
2022-09-07T04:50:31.067Z,94.54
2022-09-07T04:52:57.615Z,94.72
2022-09-07T04:55:24.311Z,94.73
2022-09-07T04:57:50.945Z,94.86
2022-09-07T05:00:17.651Z,94.93
2022-09-07T05:02:44.132Z,94.94
2022-09-07T05:05:10.691Z,94.98
2022-09-07T05:07:37.187Z,94.88
2022-09-07T05:10:04.023Z,94.99
2022-09-07T05:12:30.457Z,95.04
2022-09-07T05:14:57.193Z,94.99
2022-09-07T05:17:24.786Z,94.89
2022-09-07T05:19:51.215Z,94.83
2022-09-07T05:22:17.942Z,94.61
2022-09-07T05:24:44.516Z,94.60
2022-09-07T05:27:10.932Z,94.55
2022-09-07T05:32:23.895Z,94.48
2022-09-07T05:34:52.906Z,94.18
2022-09-07T05:37:19.671Z,94.09
2022-09-07T05:39:46.138Z,94.17
2022-09-07T05:42:12.685Z,94.17
2022-09-07T05:47:08.797Z,94.32
2022-09-07T05:49:35.439Z,94.13
2022-09-07T05:52:02.206Z,94.14
2022-09-07T05:54:28.625Z,94.21
2022-09-07T05:56:55.110Z,94.24
2022-09-07T05:59:21.838Z,94.26
2022-09-07T06:01:48.759Z,94.37
2022-09-07T06:04:15.420Z,94.24
2022-09-07T06:06:43.398Z,94.18
2022-09-07T06:09:14.520Z,94.10
2022-09-07T06:11:41.082Z,94.09
2022-09-07T06:14:07.531Z,94.18
2022-09-07T06:16:34.948Z,94.07
2022-09-07T06:19:06.468Z,94.09
2022-09-07T06:21:36.961Z,93.87
2022-09-07T06:24:04.567Z,93.86
2022-09-07T06:26:31.022Z,94.17
2022-09-07T06:28:58.071Z,94.09
2022-09-07T06:32:45.594Z,93.71
2022-09-07T06:35:13.126Z,93.45
2022-09-07T06:37:40.000Z,93.30
2022-09-07T06:40:07.818Z,93.18
2022-09-07T06:42:34.563Z,93.21
2022-09-07T06:45:01.430Z,92.25
2022-09-07T06:47:28.321Z,92.37
2022-09-07T06:49:54.739Z,92.43
2022-09-07T06:52:21.306Z,91.95
2022-09-07T06:55:03.412Z,91.34
2022-09-07T06:57:30.012Z,91.86
2022-09-07T06:59:56.516Z,91.88
2022-09-07T07:02:22.969Z,91.24
2022-09-07T07:04:49.939Z,90.37
2022-09-07T07:07:16.505Z,90.66
2022-09-07T07:09:43.050Z,90.77
2022-09-07T07:12:10.961Z,91.13
2022-09-07T07:14:39.869Z,90.77
2022-09-07T07:17:08.427Z,90.67
2022-09-07T07:19:34.942Z,90.29
2022-09-07T07:22:14.488Z,90.49
2022-09-07T07:24:47.986Z,90.29
2022-09-07T07:27:14.588Z,90.70
2022-09-07T07:29:41.088Z,90.27
2022-09-07T07:32:07.564Z,87.37
2022-09-07T07:34:34.183Z,83.26
2022-09-07T07:37:00.681Z,83.14
2022-09-07T07:42:13.989Z,81.26
2022-09-07T07:44:40.506Z,79.38
2022-09-07T07:47:07.082Z,75.28
2022-09-07T07:49:33.737Z,71.02
2022-09-07T07:54:46.893Z,74.16
2022-09-07T07:57:13.828Z,74.74
2022-09-07T07:59:40.545Z,73.16
2022-09-07T08:02:10.094Z,73.27
2022-09-07T08:04:36.902Z,73.35
2022-09-07T08:07:09.697Z,73.76
2022-09-07T08:09:42.186Z,74.95
2022-09-07T08:12:11.211Z,74.55
2022-09-07T08:14:41.349Z,72.03
2022-09-07T08:17:11.993Z,69.98
2022-09-07T08:19:39.301Z,67.54
2022-09-07T08:22:06.169Z,68.26
2022-09-07T08:24:32.920Z,70.98
2022-09-07T08:26:59.745Z,71.59
2022-09-07T08:29:27.252Z,70.42
2022-09-07T08:31:54.164Z,67.44
2022-09-07T08:34:21.882Z,68.03
2022-09-07T08:36:48.521Z,64.63
2022-09-07T08:39:15.200Z,69.27
2022-09-07T08:42:06.722Z,71.73
2022-09-07T08:44:55.181Z,72.01
2022-09-07T08:47:30.714Z,69.42
2022-09-07T08:50:23.219Z,70.00
2022-09-07T08:53:01.444Z,71.63
2022-09-07T08:55:36.423Z,70.93
2022-09-07T08:58:45.382Z,68.77
2022-09-07T09:04:16.670Z,71.56
2022-09-07T09:06:49.953Z,71.12
2022-09-07T09:09:40.170Z,71.23
2022-09-07T09:12:26.542Z,69.58
2022-09-07T09:15:18.188Z,69.50
2022-09-07T09:18:15.209Z,66.71
2022-09-07T09:20:55.887Z,59.93
2022-09-07T09:23:42.365Z,56.07
2022-09-07T09:26:21.099Z,57.03
2022-09-07T09:28:47.749Z,54.80
2022-09-07T09:31:23.452Z,58.29
2022-09-07T09:34:14.723Z,52.57
2022-09-07T09:36:52.629Z,48.64
2022-09-07T09:39:32.727Z,50.73
2022-09-07T09:42:14.504Z,49.29
2022-09-07T09:44:42.782Z,54.60
2022-09-07T09:47:41.530Z,52.33
2022-09-07T09:53:25.437Z,50.89
2022-09-07T09:55:53.893Z,52.11
2022-09-07T10:01:33.533Z,45.86
2022-09-07T10:04:23.961Z,48.27
2022-09-07T10:06:55.989Z,48.08
2022-09-07T10:09:26.212Z,51.29
2022-09-07T10:12:05.740Z,50.81
2022-09-07T10:14:41.745Z,48.31
2022-09-07T10:17:14.848Z,50.96
2022-09-07T10:19:43.325Z,52.80
2022-09-07T10:22:21.844Z,57.04
2022-09-07T10:24:48.786Z,57.06
2022-09-07T10:27:38.577Z,55.44
2022-09-07T10:30:14.864Z,59.68
2022-09-07T10:32:50.337Z,57.50
2022-09-07T10:35:29.847Z,56.96
2022-09-07T10:38:05.206Z,51.06
2022-09-07T10:41:00.147Z,48.28
2022-09-07T10:43:59.684Z,50.57
2022-09-07T10:47:20.960Z,51.99
2022-09-07T10:53:04.070Z,51.90
2022-09-07T10:55:42.933Z,51.57
2022-09-07T11:01:35.928Z,44.83
2022-09-07T11:04:35.815Z,47.55
2022-09-07T11:07:20.766Z,46.85
2022-09-07T11:10:03.340Z,51.51
2022-09-07T11:12:39.174Z,48.99
2022-09-07T11:15:23.692Z,44.90
2022-09-07T11:17:59.771Z,42.85
2022-09-07T11:20:44.494Z,42.00
2022-09-07T11:23:31.545Z,44.92
2022-09-07T11:26:14.830Z,53.43
2022-09-07T11:29:32.143Z,50.01
2022-09-07T11:32:07.234Z,49.89
2022-09-07T11:34:38.830Z,56.03
2022-09-07T11:37:30.934Z,62.04
2022-09-07T11:40:21.561Z,62.73
2022-09-07T11:43:00.183Z,64.35
2022-09-07T11:45:29.624Z,63.47
2022-09-07T11:48:01.418Z,63.99
2022-09-07T11:50:32.433Z,59.54
2022-09-07T11:53:07.121Z,54.14
2022-09-07T11:55:45.154Z,51.58
2022-09-07T11:58:35.302Z,50.43
2022-09-07T12:01:19.209Z,52.42
2022-09-07T12:04:04.275Z,53.34
2022-09-07T12:07:05.502Z,50.74
2022-09-07T12:09:50.050Z,48.97
2022-09-07T12:12:38.364Z,48.31
2022-09-07T12:15:31.151Z,51.56
2022-09-07T12:18:31.876Z,53.23
2022-09-07T12:20:58.571Z,57.38
2022-09-07T12:23:29.317Z,57.62
2022-09-07T12:26:30.922Z,58.70
2022-09-07T12:28:57.369Z,58.44
2022-09-07T12:32:53.642Z,51.97
2022-09-07T12:34:54.132Z,53.12
2022-09-07T12:37:26.695Z,58.60
2022-09-07T12:40:27.090Z,56.50
2022-09-07T12:43:12.304Z,54.95
2022-09-07T12:45:38.729Z,54.27
2022-09-07T12:48:17.342Z,53.97
2022-09-07T12:51:04.369Z,52.43
2022-09-07T12:53:41.621Z,52.37
2022-09-07T12:56:18.444Z,49.81
2022-09-07T12:59:19.590Z,51.27
2022-09-07T13:02:07.737Z,49.99
2022-09-07T13:04:37.005Z,49.22
2022-09-07T13:07:40.807Z,49.80
2022-09-07T13:10:43.669Z,50.87
2022-09-07T13:13:16.195Z,50.07
2022-09-07T13:16:13.831Z,50.01
2022-09-07T13:18:46.355Z,52.38
2022-09-07T13:21:14.592Z,54.21
2022-09-07T13:26:58.453Z,54.33
2022-09-07T13:29:43.184Z,53.99
2022-09-07T13:32:11.644Z,53.99
2022-09-07T13:35:23.545Z,52.10
2022-09-07T13:37:58.093Z,51.30
2022-09-07T13:40:28.086Z,51.96
2022-09-07T13:42:56.952Z,51.72
2022-09-07T13:45:54.500Z,50.72
2022-09-07T13:48:42.069Z,45.98
2022-09-07T13:51:16.976Z,43.04
2022-09-07T13:54:15.524Z,42.68
2022-09-07T13:57:03.047Z,44.63
2022-09-07T13:59:33.853Z,45.89
2022-09-07T14:02:01.382Z,46.85
2022-09-07T14:04:36.919Z,44.02
2022-09-07T14:07:13.231Z,41.12
2022-09-07T14:09:40.263Z,39.34
2022-09-07T14:12:21.289Z,42.38
2022-09-07T14:15:30.428Z,41.43
2022-09-07T14:18:05.823Z,42.46
2022-09-07T14:20:41.689Z,43.66
2022-09-07T14:23:29.759Z,45.88
2022-09-07T14:26:20.341Z,45.86
2022-09-07T14:28:49.076Z,44.78
2022-09-07T14:31:18.169Z,42.26
2022-09-07T14:33:53.174Z,44.61
2022-09-07T14:36:45.325Z,44.56
2022-09-07T14:39:14.993Z,45.29
2022-09-07T14:41:43.061Z,44.76
2022-09-07T14:44:40.423Z,45.93
2022-09-07T14:47:29.225Z,45.76
2022-09-07T14:49:58.224Z,44.62
2022-09-07T14:52:34.963Z,45.25
2022-09-07T14:55:20.034Z,45.97
2022-09-07T14:57:46.543Z,45.76
2022-09-07T15:00:43.207Z,45.23
2022-09-07T15:03:33.215Z,45.95
2022-09-07T15:06:01.463Z,46.54
2022-09-07T15:08:40.246Z,46.36
2022-09-07T15:14:11.397Z,47.26
2022-09-07T15:16:41.394Z,47.63
2022-09-07T15:19:18.369Z,47.17
2022-09-07T15:21:45.342Z,46.02
2022-09-07T15:24:12.149Z,44.31
2022-09-07T15:29:29.114Z,42.32
2022-09-07T15:32:03.447Z,40.86
2022-09-07T15:34:32.121Z,40.57
2022-09-07T15:37:01.404Z,41.89
2022-09-07T15:39:30.075Z,40.94
2022-09-07T15:41:58.222Z,41.95
2022-09-07T15:44:28.332Z,42.54
2022-09-07T15:49:49.294Z,41.94
2022-09-07T15:52:17.312Z,42.58
2022-09-07T15:54:43.948Z,43.82
2022-09-07T15:59:57.567Z,44.27
2022-09-07T16:05:11.002Z,42.74
2022-09-07T16:10:24.453Z,43.59
2022-09-07T16:15:45.651Z,45.53
2022-09-07T16:18:16.584Z,46.56
2022-09-07T16:20:43.577Z,47.62
2022-09-07T16:23:13.654Z,47.56
2022-09-07T16:25:42.252Z,47.99
2022-09-07T16:28:08.879Z,48.33
2022-09-07T16:30:39.093Z,49.03
2022-09-07T16:33:05.617Z,49.29
2022-09-07T16:35:32.942Z,49.32
2022-09-07T16:40:46.478Z,49.47
2022-09-07T16:43:12.960Z,48.82
2022-09-07T16:48:25.957Z,49.00
2022-09-07T16:51:00.292Z,48.85
2022-09-07T16:53:29.503Z,48.66
2022-09-07T16:56:06.091Z,48.15
2022-09-07T16:58:38.778Z,48.38
2022-09-07T17:01:12.542Z,48.96
2022-09-07T17:03:39.959Z,48.69
2022-09-07T17:06:15.250Z,47.89
2022-09-07T17:08:42.964Z,47.45
2022-09-07T17:11:18.881Z,47.17
2022-09-07T17:13:46.638Z,46.72
2022-09-07T17:16:21.738Z,46.42
2022-09-07T17:21:37.872Z,46.08
2022-09-07T17:24:06.482Z,47.01
2022-09-07T17:26:33.844Z,47.72
2022-09-07T17:29:00.874Z,48.10
2022-09-07T17:34:17.426Z,48.91
2022-09-07T17:36:44.163Z,49.49
2022-09-07T17:39:16.019Z,49.80
2022-09-07T17:41:44.071Z,51.12
2022-09-07T17:44:10.893Z,51.45
2022-09-07T17:46:37.442Z,51.96
2022-09-07T17:49:04.131Z,52.79
2022-09-07T17:51:32.718Z,52.41
2022-09-07T17:57:35.833Z,53.94
2022-09-07T18:00:14.297Z,54.81
2022-09-07T18:02:40.733Z,55.26
2022-09-07T18:05:07.597Z,56.23
2022-09-07T18:07:34.996Z,56.99
2022-09-07T18:10:01.486Z,57.65
2022-09-07T18:12:27.951Z,58.22
2022-09-07T18:14:54.354Z,58.48
2022-09-07T18:17:20.785Z,58.76
2022-09-07T18:19:47.130Z,58.93
2022-09-07T18:22:13.872Z,59.44
2022-09-07T18:24:41.951Z,59.90
2022-09-07T18:27:09.680Z,60.53
2022-09-07T18:29:36.129Z,61.08
2022-09-07T18:32:05.571Z,61.32
2022-09-07T18:34:34.111Z,61.51
2022-09-07T18:37:00.900Z,61.34
2022-09-07T18:39:27.574Z,61.96
2022-09-07T18:41:54.957Z,62.26
2022-09-07T18:47:08.693Z,62.56
2022-09-07T18:49:35.160Z,63.08
2022-09-07T18:54:48.222Z,64.20
2022-09-07T18:57:15.495Z,64.69
2022-09-07T18:59:42.032Z,64.81
2022-09-07T19:02:09.655Z,64.70
2022-09-07T19:07:27.519Z,65.74
2022-09-07T19:09:56.233Z,65.52
2022-09-07T19:12:24.246Z,65.42
2022-09-07T19:14:50.946Z,66.12
2022-09-07T19:17:17.849Z,66.56
2022-09-07T19:19:44.251Z,65.96
2022-09-07T19:22:10.595Z,66.84
2022-09-07T19:24:37.413Z,66.95
2022-09-07T19:27:03.890Z,66.58
2022-09-07T19:29:30.478Z,67.30
2022-09-07T19:32:06.869Z,67.65
2022-09-07T19:34:36.204Z,68.01
2022-09-07T19:37:05.630Z,68.55
2022-09-07T19:39:32.314Z,68.80
2022-09-07T19:41:59.158Z,69.23
2022-09-07T19:44:25.691Z,69.56
2022-09-07T19:46:52.255Z,69.87
2022-09-07T19:49:19.055Z,69.98
2022-09-07T19:51:45.845Z,70.06
2022-09-07T19:54:13.496Z,70.28
2022-09-07T19:56:42.633Z,70.45
2022-09-07T19:59:09.443Z,70.91
2022-09-07T20:01:36.191Z,71.13
2022-09-07T20:04:06.648Z,71.51
2022-09-07T20:06:34.595Z,71.92
2022-09-07T20:09:01.833Z,71.88
2022-09-07T20:11:28.850Z,72.23
2022-09-07T20:13:57.038Z,72.92
2022-09-07T20:16:25.476Z,73.09
2022-09-07T20:18:52.070Z,73.61
2022-09-07T20:21:23.451Z,73.75
2022-09-07T20:23:50.660Z,74.18
2022-09-07T20:26:19.453Z,74.32
2022-09-07T20:28:46.447Z,74.71
2022-09-07T20:31:15.429Z,75.10
2022-09-07T20:33:43.333Z,74.62
2022-09-07T20:36:12.520Z,74.81
2022-09-07T20:38:40.999Z,75.23
2022-09-07T20:41:09.799Z,74.87
2022-09-07T20:43:36.167Z,74.71
2022-09-07T20:46:02.647Z,74.38
2022-09-07T20:48:29.140Z,74.22
2022-09-07T20:50:56.615Z,74.65
2022-09-07T20:53:23.205Z,75.08
2022-09-07T20:56:02.015Z,75.24
2022-09-07T20:58:29.077Z,75.61
2022-09-07T21:00:55.640Z,75.56
2022-09-07T21:03:22.886Z,75.68
2022-09-07T21:05:49.424Z,75.77
2022-09-07T21:08:16.912Z,76.14
2022-09-07T21:10:46.266Z,75.48
2022-09-07T21:13:13.552Z,75.44
2022-09-07T21:15:45.061Z,76.20
2022-09-07T21:18:15.442Z,76.74
2022-09-07T21:20:52.813Z,77.17
2022-09-07T21:23:31.693Z,76.52
2022-09-07T21:25:58.358Z,76.91
2022-09-07T21:28:26.244Z,77.04
2022-09-07T21:31:00.713Z,76.63
2022-09-07T21:33:30.780Z,75.95
2022-09-07T21:36:06.802Z,75.66
2022-09-07T21:38:37.640Z,75.63
2022-09-07T21:41:11.329Z,75.78
2022-09-07T21:43:38.719Z,76.40
2022-09-07T21:46:12.275Z,76.08
2022-09-07T21:48:39.234Z,75.75
2022-09-07T21:51:06.178Z,75.65
2022-09-07T21:53:33.384Z,74.21
2022-09-07T21:56:05.256Z,74.97
2022-09-07T21:58:32.577Z,73.79
2022-09-07T22:01:03.185Z,73.82
2022-09-07T22:03:29.745Z,73.88
2022-09-07T22:05:56.172Z,74.29
2022-09-07T22:08:22.763Z,74.25
2022-09-07T22:10:49.195Z,74.40
2022-09-07T22:13:15.604Z,74.51
2022-09-07T22:15:42.666Z,74.48
2022-09-07T22:18:12.108Z,74.57
2022-09-07T22:20:39.107Z,74.36
2022-09-07T22:23:05.949Z,74.38
2022-09-07T22:25:33.252Z,74.99
2022-09-07T22:27:59.667Z,75.13
2022-09-07T22:30:26.084Z,75.34
2022-09-07T22:32:52.510Z,75.00
2022-09-07T22:35:20.373Z,75.19
2022-09-07T22:37:46.791Z,75.34
2022-09-07T22:40:14.748Z,75.27
2022-09-07T22:42:41.808Z,75.11
2022-09-07T22:45:08.754Z,75.34
2022-09-07T22:47:35.112Z,75.21
2022-09-07T22:50:01.676Z,75.15
2022-09-07T22:52:28.250Z,74.87
2022-09-07T22:54:54.669Z,74.65
2022-09-07T22:57:21.134Z,74.61
2022-09-07T22:59:47.529Z,74.65
2022-09-07T23:02:14.027Z,74.92
2022-09-07T23:04:40.503Z,74.84
2022-09-07T23:07:07.667Z,74.56
2022-09-07T23:09:34.088Z,74.37
2022-09-07T23:12:00.523Z,74.51
2022-09-07T23:14:26.874Z,74.65
2022-09-07T23:16:53.378Z,74.49
2022-09-07T23:19:20.342Z,74.30
2022-09-07T23:21:47.383Z,74.36
2022-09-07T23:24:16.093Z,74.11
2022-09-07T23:26:43.144Z,74.49
2022-09-07T23:29:11.356Z,74.60
2022-09-07T23:31:37.836Z,74.45
2022-09-07T23:34:04.914Z,74.45
2022-09-07T23:36:31.466Z,74.63
2022-09-07T23:38:59.474Z,74.53
2022-09-07T23:41:27.138Z,74.84
2022-09-07T23:43:54.357Z,74.66
2022-09-07T23:46:21.089Z,74.57
2022-09-07T23:48:48.419Z,74.24
2022-09-07T23:51:18.867Z,73.82
2022-09-07T23:53:49.505Z,73.63
2022-09-07T23:56:15.951Z,73.16
